Portada
METAR-TAF:

METAR-TAF

Aeroports :

Aeroport Internacional de Sfax

Sfax, Tunísia

latitud: 34-43N, longitud: 010-41E, altitud: 21 m

Observació

L'informe es va fer fa 32 minuts, a les 11:00 UTC
Vent 11 kt del Est
Temperatura 31°C
Humitat 49%
Pressió 1015 hPa
Visibilitat 10 km o més
sense núvols per sota de 1500 mi sense presència de cumulonimbus.

METAR: DTTX 171100Z 09011KT CAVOK 31/19 Q1015 NOSIG

Hora: 12:32 (11:32 UTC)

Pronòstic

L'informe es va fer fa 6 hores i 6 minuts, a les 05:26 UTC
Pronòstic vàlid del 17 a les 06 UTC al 18 a les 06 UTC
Vent 8 kt del Nord/Nord-Est
Visibilitat 10 km o més
sense núvols per sota de 1500 mi sense presència de cumulonimbus.

TAF: DTTX 170526Z 1706/1806 02008KT CAVOK

Observacions i pronòstics meteorològics de més de 4000 aeroports (METAR i TAF).

Les estacions disponibles són els punts grocs i vermells al mapa.

Posi el ratolí al punt desitjat per veure el nom de l'estació.

Feu clic per veure les observacions i els pronòstics meteorològics.

Per canviar el mapa: feu clic els botons verds amb una creu de color negre per apropar; al botó verd amb un guió per allunyar la imatge; o en les fletxes verdes per a mapes adjacents.


METAR-TAF: